Time;durP1;ratioP1;P1;durP2;ratioP2;P2;SDS_P1;SDS_P2;PMS_P1;PMS_P2;Temp;Humidity;BMP_temperature;BMP_pressure;BME280_temperature;BME280_humidity;BME280_pressure;Samples;Min_cycle;Max_cycle;Signal;HPM_P1;HPM_P2
2021/05/10 00:00:23;;;;;;;;;;;18.00;45.60;;;;;;484227;246;1124;-43
2021/05/10 00:02:25;;;;;;;;;;;18.00;45.70;;;;;;484273;246;1066;-43
2021/05/10 00:04:26;;;;;;;;;;;17.90;45.80;;;;;;484138;246;2148;-43
2021/05/10 00:06:27;;;;;;;;;;;17.90;45.80;;;;;;483886;246;1147;-44
2021/05/10 00:08:29;;;;;;;;;;;17.90;45.90;;;;;;484467;246;1128;-43
2021/05/10 00:10:31;;;;;;;;;;;17.90;45.90;;;;;;484255;246;1044;-43
2021/05/10 00:12:32;;;;;;;;;;;17.90;45.90;;;;;;484168;246;1085;-43
2021/05/10 00:14:41;;;;;;;;;;;17.80;46.00;;;;;;483928;246;1081;-43
2021/05/10 00:16:41;;;;;;;;;;;17.80;46.10;;;;;;484349;246;2073;-43
2021/05/10 00:18:42;;;;;;;;;;;17.80;46.10;;;;;;484432;246;1117;-43
2021/05/10 00:20:43;;;;;;;;;;;17.80;46.00;;;;;;484218;246;1211;-43
2021/05/10 00:22:47;;;;;;;;;;;17.80;46.10;;;;;;484101;246;1251;-43
2021/05/10 00:24:48;;;;;;;;;;;17.80;46.00;;;;;;484529;246;2152;-43
2021/05/10 00:26:51;;;;;;;;;;;17.90;46.00;;;;;;484502;246;1062;-43
2021/05/10 00:28:53;;;;;;;;;;;17.80;45.90;;;;;;484563;246;1023;-43
2021/05/10 00:30:54;;;;;;;;;;;17.80;45.90;;;;;;484444;246;1515;-43
2021/05/10 00:32:55;;;;;;;;;;;17.80;46.00;;;;;;484106;246;1062;-43
2021/05/10 00:34:56;;;;;;;;;;;17.80;46.10;;;;;;484339;246;1228;-43
2021/05/10 00:36:58;;;;;;;;;;;17.70;46.20;;;;;;483969;246;1170;-43
2021/05/10 00:38:59;;;;;;;;;;;17.80;46.20;;;;;;483925;246;1218;-43
2021/05/10 00:41:01;;;;;;;;;;;17.80;46.20;;;;;;484047;246;1313;-43
2021/05/10 00:43:02;;;;;;;;;;;17.70;46.30;;;;;;484450;246;1298;-43
2021/05/10 00:45:03;;;;;;;;;;;17.70;46.30;;;;;;483972;246;2192;-43
2021/05/10 00:47:05;;;;;;;;;;;17.70;46.40;;;;;;484023;246;1323;-43
2021/05/10 00:49:06;;;;;;;;;;;17.60;46.50;;;;;;484536;246;1050;-43
2021/05/10 00:51:07;;;;;;;;;;;17.60;46.40;;;;;;484251;246;1410;-43
2021/05/10 00:53:09;;;;;;;;;;;17.60;46.50;;;;;;484128;246;1624;-43
2021/05/10 00:55:10;;;;;;;;;;;17.70;46.40;;;;;;484088;246;1181;-43
2021/05/10 00:57:11;;;;;;;;;;;17.60;46.40;;;;;;484070;246;1209;-43
2021/05/10 00:59:12;;;;;;;;;;;17.70;46.50;;;;;;484158;246;1052;-43
2021/05/10 01:01:14;;;;;;;;;;;17.70;46.20;;;;;;484099;246;1528;-43
2021/05/10 01:03:15;;;;;;;;;;;17.70;46.30;;;;;;484471;246;1094;-44
2021/05/10 01:05:17;;;;;;;;;;;17.80;46.20;;;;;;484449;246;2143;-43
2021/05/10 01:07:18;;;;;;;;;;;17.70;46.10;;;;;;484006;246;2271;-43
2021/05/10 01:09:20;;;;;;;;;;;17.70;46.30;;;;;;484294;246;1207;-44
2021/05/10 01:11:21;;;;;;;;;;;17.60;46.40;;;;;;484373;246;1487;-44
2021/05/10 01:13:22;;;;;;;;;;;17.60;46.40;;;;;;484220;246;1068;-43
2021/05/10 01:15:26;;;;;;;;;;;17.60;46.40;;;;;;484550;246;1398;-43
2021/05/10 01:17:29;;;;;;;;;;;17.60;46.50;;;;;;484548;246;1108;-43
2021/05/10 01:19:31;;;;;;;;;;;17.60;46.40;;;;;;484208;246;1244;-44
2021/05/10 01:21:32;;;;;;;;;;;17.60;46.50;;;;;;484162;246;1426;-43
2021/05/10 01:23:34;;;;;;;;;;;17.60;46.60;;;;;;484037;246;2208;-44
2021/05/10 01:25:35;;;;;;;;;;;17.60;46.50;;;;;;484235;246;1073;-43
2021/05/10 01:27:36;;;;;;;;;;;17.60;46.50;;;;;;484174;246;1274;-43
2021/05/10 01:29:37;;;;;;;;;;;17.60;46.50;;;;;;484197;246;1193;-43
2021/05/10 01:31:39;;;;;;;;;;;17.50;46.50;;;;;;484233;246;1262;-43
2021/05/10 01:33:40;;;;;;;;;;;17.60;46.50;;;;;;484078;246;1042;-43
2021/05/10 01:35:41;;;;;;;;;;;17.50;46.60;;;;;;484376;246;1364;-43
2021/05/10 01:37:43;;;;;;;;;;;17.50;46.80;;;;;;484144;246;1136;-44
2021/05/10 01:39:44;;;;;;;;;;;17.50;46.70;;;;;;484560;246;1072;-43
2021/05/10 01:41:45;;;;;;;;;;;17.50;46.70;;;;;;483791;246;1780;-43
2021/05/10 01:43:46;;;;;;;;;;;17.50;46.60;;;;;;484500;246;2191;-43
2021/05/10 01:45:49;;;;;;;;;;;17.50;46.60;;;;;;484391;246;1047;-43
2021/05/10 01:47:49;;;;;;;;;;;17.50;46.70;;;;;;484482;246;1958;-43
2021/05/10 01:49:51;;;;;;;;;;;17.40;46.80;;;;;;484342;246;1078;-44
2021/05/10 01:51:52;;;;;;;;;;;17.50;46.80;;;;;;484077;246;1316;-43
2021/05/10 01:53:53;;;;;;;;;;;17.50;46.70;;;;;;484482;246;1141;-46
2021/05/10 01:55:54;;;;;;;;;;;17.50;46.50;;;;;;484434;246;1124;-45
2021/05/10 01:57:56;;;;;;;;;;;17.50;46.60;;;;;;484412;246;1064;-46
2021/05/10 01:59:57;;;;;;;;;;;17.50;46.70;;;;;;484432;246;1067;-46
2021/05/10 02:01:58;;;;;;;;;;;17.50;46.70;;;;;;484486;246;1128;-46
2021/05/10 02:04:00;;;;;;;;;;;17.50;46.60;;;;;;484458;246;2143;-46
2021/05/10 02:06:01;;;;;;;;;;;17.50;46.70;;;;;;484239;246;1160;-45
2021/05/10 02:08:03;;;;;;;;;;;17.50;46.70;;;;;;484589;246;1029;-46
2021/05/10 02:10:04;;;;;;;;;;;17.50;46.70;;;;;;484086;246;1137;-45
2021/05/10 02:12:05;;;;;;;;;;;17.50;46.70;;;;;;484438;246;1171;-46
2021/05/10 02:14:07;;;;;;;;;;;17.50;46.80;;;;;;484535;246;1074;-46
2021/05/10 02:16:08;;;;;;;;;;;17.50;46.70;;;;;;483925;246;2343;-46
2021/05/10 02:18:09;;;;;;;;;;;17.50;46.80;;;;;;484034;246;1059;-46
2021/05/10 02:20:10;;;;;;;;;;;17.40;46.80;;;;;;483929;246;2299;-46
2021/05/10 02:22:12;;;;;;;;;;;17.50;46.70;;;;;;484033;246;1202;-46
2021/05/10 02:24:13;;;;;;;;;;;17.50;46.60;;;;;;484225;246;2200;-46
2021/05/10 02:26:14;;;;;;;;;;;17.60;46.50;;;;;;484444;246;1126;-46
2021/05/10 02:28:16;;;;;;;;;;;17.50;46.70;;;;;;484255;246;1088;-45
2021/05/10 02:30:17;;;;;;;;;;;17.40;46.70;;;;;;484416;246;1195;-46
2021/05/10 02:32:18;;;;;;;;;;;17.40;46.70;;;;;;484071;246;1551;-46
2021/05/10 02:34:19;;;;;;;;;;;17.50;46.70;;;;;;484144;246;1065;-46
2021/05/10 02:36:21;;;;;;;;;;;17.50;46.70;;;;;;484395;246;1366;-46
2021/05/10 02:38:22;;;;;;;;;;;17.50;46.80;;;;;;484383;246;1096;-46
2021/05/10 02:40:23;;;;;;;;;;;17.40;46.90;;;;;;483930;246;2414;-46
2021/05/10 02:42:24;;;;;;;;;;;17.40;46.80;;;;;;484267;246;1555;-46
2021/05/10 02:44:26;;;;;;;;;;;17.50;46.60;;;;;;484037;246;2196;-46
2021/05/10 02:46:30;;;;;;;;;;;17.50;46.50;;;;;;484120;246;1739;-46
2021/05/10 02:48:32;;;;;;;;;;;17.50;46.50;;;;;;484164;246;1131;-46
2021/05/10 02:50:34;;;;;;;;;;;17.50;46.40;;;;;;484290;242;1361;-46
2021/05/10 02:52:35;;;;;;;;;;;17.60;46.50;;;;;;484139;246;1214;-46
2021/05/10 02:54:37;;;;;;;;;;;17.50;46.70;;;;;;484428;246;1059;-46
2021/05/10 02:56:38;;;;;;;;;;;17.50;46.50;;;;;;484447;246;1186;-46
2021/05/10 02:58:41;;;;;;;;;;;17.60;46.60;;;;;;484073;246;1081;-46
2021/05/10 03:00:42;;;;;;;;;;;17.50;46.50;;;;;;484494;246;1093;-46
2021/05/10 03:02:43;;;;;;;;;;;17.50;46.70;;;;;;483958;246;1243;-46
2021/05/10 03:04:44;;;;;;;;;;;17.50;46.80;;;;;;484510;246;2149;-46
2021/05/10 03:06:46;;;;;;;;;;;17.40;46.80;;;;;;483967;246;1241;-46
2021/05/10 03:08:47;;;;;;;;;;;17.40;46.90;;;;;;484133;246;1040;-46
2021/05/10 03:10:48;;;;;;;;;;;17.40;46.90;;;;;;484206;246;1205;-46
2021/05/10 03:12:50;;;;;;;;;;;17.40;46.80;;;;;;483950;246;2237;-46
2021/05/10 03:14:51;;;;;;;;;;;17.40;46.80;;;;;;483951;246;1221;-46
2021/05/10 03:16:52;;;;;;;;;;;17.40;46.80;;;;;;484007;246;1599;-46
2021/05/10 03:18:53;;;;;;;;;;;17.40;46.90;;;;;;484266;246;2395;-46
2021/05/10 03:20:55;;;;;;;;;;;17.40;46.80;;;;;;484144;246;1587;-45
2021/05/10 03:22:56;;;;;;;;;;;17.40;46.90;;;;;;484321;246;1204;-46
2021/05/10 03:24:57;;;;;;;;;;;17.40;46.80;;;;;;484298;246;2216;-46
2021/05/10 03:26:58;;;;;;;;;;;17.50;46.80;;;;;;484031;246;1192;-46
2021/05/10 03:29:00;;;;;;;;;;;17.40;46.70;;;;;;484083;246;1023;-46
2021/05/10 03:31:02;;;;;;;;;;;17.40;46.80;;;;;;484402;246;1236;-46
2021/05/10 03:33:03;;;;;;;;;;;17.40;46.80;;;;;;484516;246;1207;-46
2021/05/10 03:35:05;;;;;;;;;;;17.40;46.80;;;;;;484534;246;1131;-46
2021/05/10 03:37:06;;;;;;;;;;;17.40;46.80;;;;;;484003;246;1267;-46
2021/05/10 03:39:07;;;;;;;;;;;17.30;46.90;;;;;;483946;246;1046;-46
2021/05/10 03:41:09;;;;;;;;;;;17.40;47.00;;;;;;484432;246;1092;-46
2021/05/10 03:43:14;;;;;;;;;;;17.40;47.00;;;;;;484242;246;1108;-46
2021/05/10 03:45:16;;;;;;;;;;;17.40;46.80;;;;;;484285;246;2211;-46
2021/05/10 03:47:17;;;;;;;;;;;17.40;46.80;;;;;;484431;246;1158;-46
2021/05/10 03:49:19;;;;;;;;;;;17.40;46.70;;;;;;484466;246;1083;-46
2021/05/10 03:51:20;;;;;;;;;;;17.40;46.70;;;;;;484329;246;1105;-45
2021/05/10 03:53:21;;;;;;;;;;;17.50;46.80;;;;;;484067;246;1246;-46
2021/05/10 03:55:23;;;;;;;;;;;17.40;46.80;;;;;;484498;246;1088;-45
2021/05/10 03:57:24;;;;;;;;;;;17.40;46.80;;;;;;484416;246;1072;-46
2021/05/10 03:59:26;;;;;;;;;;;17.40;46.90;;;;;;484505;246;1089;-46
2021/05/10 04:01:27;;;;;;;;;;;17.40;46.90;;;;;;484422;246;1192;-46
2021/05/10 04:03:30;;;;;;;;;;;17.50;46.80;;;;;;483965;246;1222;-46
2021/05/10 04:05:47;;;;;;;;;;;17.40;46.80;;;;;;483897;246;2168;-46
2021/05/10 04:07:42;;;;;;;;;;;17.40;46.90;;;;;;482954;246;1506;-46
2021/05/10 04:09:50;;;;;;;;;;;17.40;46.80;;;;;;483963;246;1796;-46
2021/05/10 04:14:06;;;;;;;;;;;17.40;46.80;;;;;;484417;246;1141;-46
2021/05/10 04:16:07;;;;;;;;;;;17.50;46.60;;;;;;484294;246;1187;-46
2021/05/10 04:18:09;;;;;;;;;;;18.00;45.50;;;;;;484028;246;1231;-46
2021/05/10 04:20:10;;;;;;;;;;;18.30;44.60;;;;;;484412;246;1070;-46
2021/05/10 04:22:12;;;;;;;;;;;18.60;44.00;;;;;;483957;246;1166;-46
2021/05/10 04:24:13;;;;;;;;;;;18.80;43.60;;;;;;484144;246;1211;-44
2021/05/10 04:26:14;;;;;;;;;;;18.90;43.30;;;;;;484034;246;2212;-43
2021/05/10 04:28:16;;;;;;;;;;;19.00;43.00;;;;;;484040;246;1254;-44
2021/05/10 04:30:17;;;;;;;;;;;19.20;42.90;;;;;;484456;246;1221;-43
2021/05/10 04:32:18;;;;;;;;;;;19.20;42.60;;;;;;484026;246;1271;-44
2021/05/10 04:34:19;;;;;;;;;;;19.30;42.50;;;;;;484051;246;1081;-43
2021/05/10 04:36:21;;;;;;;;;;;19.40;42.40;;;;;;483942;246;1163;-43
2021/05/10 04:38:25;;;;;;;;;;;19.40;42.20;;;;;;484260;246;1112;-44
2021/05/10 04:40:26;;;;;;;;;;;19.50;42.10;;;;;;484376;246;1418;-44
2021/05/10 04:42:27;;;;;;;;;;;19.50;42.00;;;;;;484281;246;1241;-43
2021/05/10 04:44:28;;;;;;;;;;;19.60;41.90;;;;;;484085;246;1072;-44
2021/05/10 04:46:30;;;;;;;;;;;19.60;41.70;;;;;;483855;246;2196;-44
2021/05/10 04:48:31;;;;;;;;;;;19.70;41.70;;;;;;484049;246;1069;-44
2021/05/10 04:50:34;;;;;;;;;;;19.70;41.60;;;;;;484090;246;2339;-43
2021/05/10 04:52:35;;;;;;;;;;;19.80;41.60;;;;;;484512;246;1081;-44
2021/05/10 04:54:36;;;;;;;;;;;19.90;41.40;;;;;;484073;246;1138;-43
2021/05/10 04:56:38;;;;;;;;;;;19.80;41.50;;;;;;483575;246;1381;-43
2021/05/10 04:58:39;;;;;;;;;;;19.80;41.40;;;;;;483970;246;1063;-43
2021/05/10 05:00:40;;;;;;;;;;;19.90;41.40;;;;;;484086;246;1096;-44
2021/05/10 05:02:42;;;;;;;;;;;19.90;41.40;;;;;;483528;246;2019;-43
2021/05/10 05:04:43;;;;;;;;;;;19.90;41.30;;;;;;483575;246;2063;-44
2021/05/10 05:06:46;;;;;;;;;;;20.00;41.30;;;;;;483853;246;2184;-43
2021/05/10 05:08:47;;;;;;;;;;;20.00;41.30;;;;;;491495;242;1163;-44
2021/05/10 05:10:49;;;;;;;;;;;20.00;41.20;;;;;;482444;247;1102;-43
2021/05/10 05:12:50;;;;;;;;;;;20.00;41.20;;;;;;482542;247;1075;-44
2021/05/10 05:14:51;;;;;;;;;;;20.10;41.20;;;;;;482421;247;1165;-44
2021/05/10 05:16:52;;;;;;;;;;;20.00;41.20;;;;;;482575;247;1171;-43
2021/05/10 05:18:54;;;;;;;;;;;20.10;41.10;;;;;;482592;247;1046;-44
2021/05/10 05:20:55;;;;;;;;;;;19.80;41.60;;;;;;482721;247;1107;-44
2021/05/10 05:22:56;;;;;;;;;;;19.30;42.60;;;;;;482410;247;1070;-44
2021/05/10 05:24:58;;;;;;;;;;;19.00;43.50;;;;;;482221;247;2204;-44
2021/05/10 05:26:59;;;;;;;;;;;18.70;44.10;;;;;;482044;247;1204;-44
2021/05/10 05:29:00;;;;;;;;;;;18.60;44.60;;;;;;482493;247;1235;-46
2021/05/10 05:31:01;;;;;;;;;;;18.40;45.00;;;;;;482409;247;1072;-46
2021/05/10 05:33:03;;;;;;;;;;;18.30;45.20;;;;;;482219;247;1853;-43
2021/05/10 05:35:04;;;;;;;;;;;18.30;45.40;;;;;;482243;247;1140;-43
2021/05/10 05:37:05;;;;;;;;;;;18.20;45.60;;;;;;482336;247;1234;-44
2021/05/10 05:39:07;;;;;;;;;;;18.10;45.90;;;;;;482222;247;1195;-43
2021/05/10 05:41:10;;;;;;;;;;;18.10;46.00;;;;;;482192;247;1313;-43
2021/05/10 05:43:10;;;;;;;;;;;18.00;46.20;;;;;;482233;247;2175;-43
2021/05/10 05:45:13;;;;;;;;;;;18.00;46.30;;;;;;482332;247;2169;-43
2021/05/10 05:47:21;;;;;;;;;;;17.90;46.30;;;;;;482339;247;2971;-43
2021/05/10 05:49:17;;;;;;;;;;;17.90;46.40;;;;;;481336;247;1422;-43
2021/05/10 05:51:19;;;;;;;;;;;17.90;46.60;;;;;;482032;247;1288;-43
2021/05/10 05:53:21;;;;;;;;;;;17.90;46.50;;;;;;481434;247;1185;-43
2021/05/10 05:55:26;;;;;;;;;;;17.90;46.50;;;;;;482493;247;1324;-43
2021/05/10 05:57:27;;;;;;;;;;;17.90;46.60;;;;;;482333;247;1320;-43
2021/05/10 05:59:28;;;;;;;;;;;17.90;46.80;;;;;;482170;247;2253;-43
2021/05/10 06:01:30;;;;;;;;;;;17.90;46.70;;;;;;482423;247;1248;-43
2021/05/10 06:03:32;;;;;;;;;;;17.80;46.80;;;;;;482217;247;1255;-43
2021/05/10 06:05:33;;;;;;;;;;;17.80;46.80;;;;;;482472;247;2200;-43
2021/05/10 06:07:34;;;;;;;;;;;17.80;46.70;;;;;;482146;247;1173;-43
2021/05/10 06:09:35;;;;;;;;;;;17.80;46.70;;;;;;482173;247;1193;-43
2021/05/10 06:11:38;;;;;;;;;;;17.80;46.90;;;;;;482214;247;1285;-44
2021/05/10 06:13:41;;;;;;;;;;;17.80;46.80;;;;;;482178;247;1093;-43
2021/05/10 06:15:42;;;;;;;;;;;17.80;47.00;;;;;;482162;247;1296;-43
2021/05/10 06:17:43;;;;;;;;;;;17.70;47.00;;;;;;482406;247;1255;-44
2021/05/10 06:19:46;;;;;;;;;;;17.70;47.00;;;;;;483961;246;1181;-43
2021/05/10 06:21:47;;;;;;;;;;;17.70;47.20;;;;;;483598;246;1578;-43
2021/05/10 06:23:48;;;;;;;;;;;17.60;47.20;;;;;;483704;246;1121;-43
2021/05/10 06:25:50;;;;;;;;;;;17.60;47.20;;;;;;483565;246;2145;-43
2021/05/10 06:27:52;;;;;;;;;;;17.60;47.30;;;;;;483657;246;1188;-43
2021/05/10 06:29:52;;;;;;;;;;;17.60;47.40;;;;;;483867;246;1460;-43
2021/05/10 06:31:54;;;;;;;;;;;17.60;47.40;;;;;;483534;246;1234;-46
2021/05/10 06:33:55;;;;;;;;;;;17.60;47.30;;;;;;483715;246;1105;-45
2021/05/10 06:35:56;;;;;;;;;;;17.60;47.30;;;;;;483683;246;2062;-46
2021/05/10 06:37:59;;;;;;;;;;;17.70;47.20;;;;;;483809;246;1209;-46
2021/05/10 06:40:00;;;;;;;;;;;17.70;47.10;;;;;;483611;246;1267;-46
2021/05/10 06:42:02;;;;;;;;;;;17.70;47.20;;;;;;483844;246;1240;-46
2021/05/10 06:44:03;;;;;;;;;;;17.60;47.30;;;;;;483553;246;1247;-46
2021/05/10 06:46:04;;;;;;;;;;;17.60;47.30;;;;;;483283;246;2200;-46
2021/05/10 06:48:05;;;;;;;;;;;17.60;47.30;;;;;;483659;246;1211;-45
2021/05/10 06:50:07;;;;;;;;;;;17.60;47.30;;;;;;483642;246;1165;-46
2021/05/10 06:52:08;;;;;;;;;;;17.60;47.50;;;;;;483557;246;1184;-45
2021/05/10 06:54:09;;;;;;;;;;;17.50;47.40;;;;;;483400;246;1169;-45
2021/05/10 06:56:11;;;;;;;;;;;17.60;47.40;;;;;;483463;246;1194;-45
2021/05/10 06:58:12;;;;;;;;;;;17.60;47.30;;;;;;483848;246;1273;-45
2021/05/10 07:00:13;;;;;;;;;;;17.70;47.30;;;;;;483460;246;1177;-46
2021/05/10 07:02:19;;;;;;;;;;;17.60;47.40;;;;;;483102;246;1317;-45
2021/05/10 07:04:19;;;;;;;;;;;17.60;47.50;;;;;;483099;246;1762;-45
2021/05/10 07:06:20;;;;;;;;;;;17.60;47.40;;;;;;483544;246;2137;-45
2021/05/10 07:08:22;;;;;;;;;;;17.60;47.30;;;;;;483662;246;1455;-45
2021/05/10 07:10:23;;;;;;;;;;;17.60;47.30;;;;;;483433;246;1151;-45
2021/05/10 07:12:24;;;;;;;;;;;17.60;47.40;;;;;;483452;246;1493;-45
2021/05/10 07:14:28;;;;;;;;;;;17.50;47.50;;;;;;483346;246;1107;-45
2021/05/10 07:16:29;;;;;;;;;;;17.50;47.60;;;;;;483131;246;1211;-45
2021/05/10 07:18:33;;;;;;;;;;;17.50;47.60;;;;;;483192;246;1208;-46
2021/05/10 07:20:34;;;;;;;;;;;17.50;47.50;;;;;;484002;246;1179;-45
2021/05/10 07:22:35;;;;;;;;;;;17.50;47.50;;;;;;483383;246;1117;-46
2021/05/10 07:24:37;;;;;;;;;;;17.50;47.50;;;;;;483492;246;1450;-46
2021/05/10 07:26:40;;;;;;;;;;;17.50;47.50;;;;;;483281;246;2184;-46
2021/05/10 07:28:41;;;;;;;;;;;17.50;47.50;;;;;;483885;246;1878;-45
2021/05/10 07:30:43;;;;;;;;;;;17.50;47.60;;;;;;483717;246;1345;-45
2021/05/10 07:32:44;;;;;;;;;;;17.50;47.70;;;;;;483332;246;1184;-45
2021/05/10 07:34:47;;;;;;;;;;;17.40;47.70;;;;;;483367;246;1119;-45
2021/05/10 07:36:48;;;;;;;;;;;17.50;47.70;;;;;;483246;246;1275;-45
2021/05/10 07:38:49;;;;;;;;;;;17.50;47.70;;;;;;483435;246;1189;-45
2021/05/10 07:40:51;;;;;;;;;;;17.50;47.70;;;;;;482425;246;2232;-45
2021/05/10 07:42:52;;;;;;;;;;;17.50;47.50;;;;;;483373;246;1211;-45
2021/05/10 07:44:54;;;;;;;;;;;17.50;47.50;;;;;;483451;246;1142;-45
2021/05/10 07:46:55;;;;;;;;;;;17.60;47.30;;;;;;483342;246;2212;-45
2021/05/10 07:48:56;;;;;;;;;;;17.60;47.40;;;;;;483397;246;1329;-45
2021/05/10 07:50:58;;;;;;;;;;;17.50;47.40;;;;;;483318;246;1413;-45
2021/05/10 07:52:59;;;;;;;;;;;17.50;47.50;;;;;;483248;246;1151;-45
2021/05/10 07:55:03;;;;;;;;;;;17.50;47.60;;;;;;483148;246;2112;-45
2021/05/10 07:57:07;;;;;;;;;;;17.40;47.70;;;;;;483240;246;1512;-45
2021/05/10 07:59:10;;;;;;;;;;;17.40;47.80;;;;;;483569;246;2077;-45
2021/05/10 08:01:09;;;;;;;;;;;17.50;47.70;;;;;;483411;246;2228;-45
2021/05/10 08:03:16;;;;;;;;;;;17.40;47.70;;;;;;483392;246;1130;-45
2021/05/10 08:05:15;;;;;;;;;;;17.40;47.70;;;;;;482970;246;1702;-45
2021/05/10 08:07:16;;;;;;;;;;;17.60;47.50;;;;;;483128;246;2196;-45
2021/05/10 08:09:17;;;;;;;;;;;17.50;47.40;;;;;;483719;246;1216;-45
2021/05/10 08:11:18;;;;;;;;;;;17.50;47.60;;;;;;483183;246;1265;-45
2021/05/10 08:13:20;;;;;;;;;;;17.40;47.60;;;;;;483301;246;1284;-46
2021/05/10 08:15:25;;;;;;;;;;;17.50;47.60;;;;;;483084;246;2188;-45
2021/05/10 08:17:25;;;;;;;;;;;17.40;47.60;;;;;;483256;246;2108;-45
2021/05/10 08:19:27;;;;;;;;;;;17.40;47.70;;;;;;483553;246;1229;-45
2021/05/10 08:21:28;;;;;;;;;;;17.50;47.70;;;;;;483346;246;1348;-45
2021/05/10 08:23:31;;;;;;;;;;;17.50;47.60;;;;;;483516;246;1106;-46
2021/05/10 08:25:32;;;;;;;;;;;17.40;47.70;;;;;;483268;246;1314;-45
2021/05/10 08:27:34;;;;;;;;;;;17.50;47.70;;;;;;483617;246;2203;-45
2021/05/10 08:29:36;;;;;;;;;;;17.40;47.70;;;;;;483359;246;1320;-45
2021/05/10 08:31:37;;;;;;;;;;;17.40;47.80;;;;;;483244;246;1930;-45
2021/05/10 08:33:39;;;;;;;;;;;17.40;47.70;;;;;;483823;246;1334;-45
2021/05/10 08:35:40;;;;;;;;;;;17.40;47.80;;;;;;483511;246;1351;-45
2021/05/10 08:37:41;;;;;;;;;;;17.40;47.80;;;;;;483865;246;1633;-45
2021/05/10 08:39:42;;;;;;;;;;;17.40;47.90;;;;;;483346;246;1215;-45
2021/05/10 08:41:44;;;;;;;;;;;17.40;47.80;;;;;;482912;246;1153;-45
2021/05/10 08:43:45;;;;;;;;;;;17.40;47.60;;;;;;483563;246;1238;-45
2021/05/10 08:45:46;;;;;;;;;;;17.50;47.60;;;;;;483861;246;1563;-45
2021/05/10 08:47:48;;;;;;;;;;;17.50;47.60;;;;;;483225;246;2200;-45
2021/05/10 08:49:49;;;;;;;;;;;17.50;47.60;;;;;;483312;246;1253;-45
2021/05/10 08:51:50;;;;;;;;;;;17.50;47.60;;;;;;483193;246;2039;-45
2021/05/10 08:53:53;;;;;;;;;;;17.40;47.60;;;;;;483274;246;1406;-46
2021/05/10 08:55:54;;;;;;;;;;;17.50;47.60;;;;;;483850;246;1440;-45
2021/05/10 08:57:56;;;;;;;;;;;17.50;47.60;;;;;;483505;246;1242;-45
2021/05/10 08:59:57;;;;;;;;;;;17.40;47.60;;;;;;483686;246;1345;-45
2021/05/10 09:01:59;;;;;;;;;;;17.50;47.70;;;;;;483327;246;1363;-45
2021/05/10 09:03:59;;;;;;;;;;;17.50;47.60;;;;;;483325;246;1363;-45
2021/05/10 09:06:01;;;;;;;;;;;17.40;47.60;;;;;;484044;246;1295;-45
2021/05/10 09:08:02;;;;;;;;;;;17.50;47.60;;;;;;483578;246;2188;-45
2021/05/10 09:10:04;;;;;;;;;;;17.50;47.60;;;;;;483791;246;1095;-45
2021/05/10 09:12:05;;;;;;;;;;;17.50;47.50;;;;;;483498;246;1401;-45
2021/05/10 09:14:06;;;;;;;;;;;17.50;47.50;;;;;;483703;246;1194;-45
2021/05/10 09:16:08;;;;;;;;;;;17.50;47.50;;;;;;483469;246;1364;-45
2021/05/10 09:18:09;;;;;;;;;;;17.50;47.50;;;;;;483542;246;1315;-45
2021/05/10 09:20:10;;;;;;;;;;;17.50;47.60;;;;;;484068;246;1195;-45
2021/05/10 09:22:11;;;;;;;;;;;17.50;47.50;;;;;;483426;246;1994;-45
2021/05/10 09:24:14;;;;;;;;;;;17.50;47.50;;;;;;483216;246;1276;-45
2021/05/10 09:26:15;;;;;;;;;;;17.50;47.60;;;;;;483331;246;2149;-45
2021/05/10 09:28:16;;;;;;;;;;;17.50;47.50;;;;;;483259;246;1324;-45
2021/05/10 09:30:17;;;;;;;;;;;17.50;47.50;;;;;;483423;246;1264;-45
2021/05/10 09:32:19;;;;;;;;;;;17.50;47.50;;;;;;483683;246;1267;-46
2021/05/10 09:34:21;;;;;;;;;;;17.40;47.60;;;;;;483395;246;1139;-45
2021/05/10 09:36:21;;;;;;;;;;;17.50;47.70;;;;;;483771;245;1502;-45
2021/05/10 09:38:23;;;;;;;;;;;17.40;47.70;;;;;;483411;246;1309;-45
2021/05/10 09:40:24;;;;;;;;;;;17.40;47.60;;;;;;483244;246;2288;-45
2021/05/10 09:42:26;;;;;;;;;;;17.40;47.70;;;;;;483294;246;1202;-45
2021/05/10 09:44:27;;;;;;;;;;;17.40;47.90;;;;;;483664;246;1535;-45
2021/05/10 09:46:29;;;;;;;;;;;17.40;47.80;;;;;;483510;246;2169;-45
2021/05/10 09:48:33;;;;;;;;;;;17.40;47.80;;;;;;483669;246;1152;-46
2021/05/10 09:50:33;;;;;;;;;;;17.40;47.80;;;;;;483698;244;1931;-45
2021/05/10 09:52:34;;;;;;;;;;;17.40;47.70;;;;;;483253;246;1414;-45
2021/05/10 09:54:35;;;;;;;;;;;17.40;47.80;;;;;;483514;246;1215;-45
2021/05/10 09:56:37;;;;;;;;;;;17.40;47.80;;;;;;483566;246;1172;-45
2021/05/10 09:58:38;;;;;;;;;;;17.50;47.70;;;;;;483607;246;1434;-45
2021/05/10 10:00:39;;;;;;;;;;;17.50;47.70;;;;;;482730;246;1448;-45
2021/05/10 10:02:40;;;;;;;;;;;17.50;47.70;;;;;;483529;246;1244;-45
2021/05/10 10:04:42;;;;;;;;;;;17.50;47.60;;;;;;483423;246;1263;-45
2021/05/10 10:06:46;;;;;;;;;;;17.50;47.60;;;;;;483261;246;2184;-45
2021/05/10 10:08:47;;;;;;;;;;;17.40;47.70;;;;;;483154;246;1185;-45
2021/05/10 10:10:48;;;;;;;;;;;17.40;47.80;;;;;;483372;246;1261;-45
2021/05/10 10:12:49;;;;;;;;;;;17.50;47.80;;;;;;484031;246;1058;-45
2021/05/10 10:14:51;;;;;;;;;;;17.50;47.80;;;;;;483601;246;1190;-45
2021/05/10 10:16:54;;;;;;;;;;;17.40;47.70;;;;;;483359;242;1293;-45
2021/05/10 10:18:55;;;;;;;;;;;17.40;47.80;;;;;;483339;246;1446;-45
2021/05/10 10:20:56;;;;;;;;;;;17.40;47.80;;;;;;483582;246;1182;-45
2021/05/10 10:22:58;;;;;;;;;;;17.50;47.80;;;;;;483471;246;1851;-45
2021/05/10 10:24:59;;;;;;;;;;;17.40;47.80;;;;;;483136;246;1306;-45
2021/05/10 10:27:00;;;;;;;;;;;17.50;47.80;;;;;;483708;246;2141;-45
2021/05/10 10:29:02;;;;;;;;;;;17.50;47.70;;;;;;483606;246;1188;-45
2021/05/10 10:31:03;;;;;;;;;;;17.40;47.80;;;;;;484097;246;1191;-45
2021/05/10 10:33:04;;;;;;;;;;;17.40;47.80;;;;;;483688;245;1224;-46
2021/05/10 10:35:05;;;;;;;;;;;17.50;47.70;;;;;;483493;246;1339;-45
2021/05/10 10:37:07;;;;;;;;;;;17.50;47.60;;;;;;483573;246;1333;-45
2021/05/10 10:39:08;;;;;;;;;;;17.50;47.50;;;;;;483269;246;1252;-45
2021/05/10 10:41:13;;;;;;;;;;;17.50;47.50;;;;;;483545;246;2019;-45
2021/05/10 10:43:14;;;;;;;;;;;17.50;47.50;;;;;;483478;246;1134;-45
2021/05/10 10:45:16;;;;;;;;;;;17.50;47.50;;;;;;482992;246;1392;-46
2021/05/10 10:47:18;;;;;;;;;;;17.50;47.60;;;;;;483425;246;2192;-45
2021/05/10 10:49:18;;;;;;;;;;;17.50;47.50;;;;;;483145;246;2149;-45
2021/05/10 10:51:20;;;;;;;;;;;17.60;47.50;;;;;;483433;246;1179;-45
2021/05/10 10:53:21;;;;;;;;;;;17.50;47.60;;;;;;483315;246;1862;-45
2021/05/10 10:55:24;;;;;;;;;;;17.50;47.60;;;;;;483482;246;1183;-45
2021/05/10 10:57:24;;;;;;;;;;;17.50;47.60;;;;;;483430;246;1936;-46
2021/05/10 10:59:25;;;;;;;;;;;17.40;47.60;;;;;;483695;246;1146;-45
2021/05/10 11:01:26;;;;;;;;;;;17.40;47.70;;;;;;483327;246;1295;-46
2021/05/10 11:03:28;;;;;;;;;;;17.50;47.50;;;;;;483322;246;1219;-45
2021/05/10 11:05:29;;;;;;;;;;;17.40;47.50;;;;;;483263;246;1234;-45
2021/05/10 11:07:30;;;;;;;;;;;17.60;47.40;;;;;;483573;246;2188;-45
2021/05/10 11:09:32;;;;;;;;;;;18.10;46.30;;;;;;483213;246;1130;-45
2021/05/10 11:11:34;;;;;;;;;;;18.40;45.30;;;;;;483362;246;1312;-45
2021/05/10 11:13:37;;;;;;;;;;;18.70;44.80;;;;;;483552;246;1130;-45
2021/05/10 11:15:38;;;;;;;;;;;18.80;44.40;;;;;;483951;246;1145;-46
2021/05/10 11:17:39;;;;;;;;;;;18.90;44.10;;;;;;483725;246;1094;-46
2021/05/10 11:19:42;;;;;;;;;;;19.00;43.80;;;;;;483364;246;1212;-46
2021/05/10 11:21:44;;;;;;;;;;;19.20;43.60;;;;;;483491;246;1338;-45
2021/05/10 11:23:45;;;;;;;;;;;19.20;43.40;;;;;;483175;246;1211;-45
2021/05/10 11:25:46;;;;;;;;;;;19.30;43.30;;;;;;483290;246;1250;-45
2021/05/10 11:27:50;;;;;;;;;;;19.30;43.20;;;;;;483449;246;2136;-46
2021/05/10 11:29:51;;;;;;;;;;;19.40;43.10;;;;;;483561;246;1085;-46
2021/05/10 11:31:53;;;;;;;;;;;19.40;43.00;;;;;;483353;246;1488;-46
2021/05/10 11:33:54;;;;;;;;;;;19.50;42.90;;;;;;483680;246;1138;-46
2021/05/10 11:35:57;;;;;;;;;;;19.50;42.70;;;;;;483374;246;1100;-45
2021/05/10 11:37:59;;;;;;;;;;;19.60;42.70;;;;;;483343;246;1235;-46
2021/05/10 11:40:02;;;;;;;;;;;19.60;42.60;;;;;;483465;246;1109;-46
2021/05/10 11:42:04;;;;;;;;;;;19.70;42.50;;;;;;483290;246;1213;-46
2021/05/10 11:44:05;;;;;;;;;;;19.70;42.50;;;;;;483418;246;1270;-46
2021/05/10 11:46:06;;;;;;;;;;;19.80;42.40;;;;;;483371;246;1239;-46
2021/05/10 11:48:08;;;;;;;;;;;19.80;42.30;;;;;;483456;246;2188;-46
2021/05/10 11:50:09;;;;;;;;;;;19.80;42.30;;;;;;483267;246;1313;-45
2021/05/10 11:52:10;;;;;;;;;;;19.90;42.20;;;;;;483453;246;1311;-45
2021/05/10 11:54:11;;;;;;;;;;;19.90;42.20;;;;;;483492;246;1115;-45
2021/05/10 11:56:13;;;;;;;;;;;19.90;42.10;;;;;;483437;246;1240;-45
2021/05/10 11:58:14;;;;;;;;;;;19.90;42.10;;;;;;483522;246;1172;-46
2021/05/10 12:00:15;;;;;;;;;;;20.00;42.10;;;;;;483636;246;1327;-44